Time,TemperatureF,DewpointF,PressureIn,WindDirection,WindDirectionDegrees,WindSpeedMPH,WindSpeedGustMPH,Humidity,HourlyPrecipIn,Conditions,Clouds,dailyrainin,SoftwareType,DateUTC
2013-07-11 00:00:00,68.4,67.5,29.94,West,265,0.0,0.0,97,0.00,,---,0.06,VWS V14.00,2013-07-11 04:00:00,
2013-07-11 00:01:00,68.4,67.5,29.94,West,264,0.0,0.0,97,0.00,,---,0.06,VWS V14.00,2013-07-11 04:01:00,
2013-07-11 00:06:00,68.4,67.5,29.94,West,264,0.0,0.0,97,0.00,,---,0.06,VWS V14.00,2013-07-11 04:06:00,
2013-07-11 00:11:00,68.4,67.5,29.93,West,264,0.0,0.0,97,0.00,,---,0.00,VWS V14.00,2013-07-11 04:11:00,
2013-07-11 00:16:00,68.3,67.4,29.93,West,265,0.0,0.0,97,0.00,,---,0.00,VWS V14.00,2013-07-11 04:16:00,
2013-07-11 00:21:00,68.3,67.7,29.93,West,265,0.0,0.0,98,0.00,,---,0.00,VWS V14.00,2013-07-11 04:21:00,
2013-07-11 00:26:00,68.3,67.7,29.93,West,265,0.0,0.0,98,0.00,,---,0.00,VWS V14.00,2013-07-11 04:26:00,
2013-07-11 00:30:00,68.4,67.8,29.93,West,265,0.0,0.0,98,0.00,,---,0.00,VWS V14.00,2013-07-11 04:30:00,
2013-07-11 00:31:00,68.3,67.7,29.92,West,265,0.0,0.0,98,0.00,,---,0.00,VWS V14.00,2013-07-11 04:31:00,
2013-07-11 00:36:00,68.4,67.8,29.93,West,264,0.0,0.0,98,0.00,,---,0.00,VWS V14.00,2013-07-11 04:36:00,
2013-07-11 00:41:00,68.4,67.8,29.92,West,265,0.0,1.0,98,0.00,,---,0.00,VWS V14.00,2013-07-11 04:41:00,
2013-07-11 00:46:00,68.4,67.8,29.92,West,265,0.0,1.0,98,0.00,,---,0.00,VWS V14.00,2013-07-11 04:46:00,
2013-07-11 00:51:00,68.4,67.8,29.93,West,264,0.0,1.0,98,0.00,,---,0.00,VWS V14.00,2013-07-11 04:51:00,
2013-07-11 00:56:00,68.4,67.8,29.93,West,265,0.0,1.0,98,0.00,,---,0.00,VWS V14.00,2013-07-11 04:56:00,
2013-07-11 01:00:00,68.4,67.8,29.92,West,265,0.0,1.0,98,0.00,,---,0.00,VWS V14.00,2013-07-11 05:00:00,
2013-07-11 01:01:00,68.4,67.8,29.92,West,265,0.0,1.0,98,0.00,,---,0.00,VWS V14.00,2013-07-11 05:01:00,
2013-07-11 01:06:00,68.4,67.8,29.92,West,265,0.0,1.0,98,0.00,,---,0.00,VWS V14.00,2013-07-11 05:06:00,
2013-07-11 01:11:00,68.4,67.8,29.92,West,265,0.0,0.0,98,0.00,,---,0.00,VWS V14.00,2013-07-11 05:11:00,
2013-07-11 01:16:00,68.4,67.8,29.92,West,265,0.0,0.0,98,0.00,,---,0.00,VWS V14.00,2013-07-11 05:16:00,
2013-07-11 01:21:00,68.4,67.8,29.92,West,264,0.0,0.0,98,0.00,,---,0.00,VWS V14.00,2013-07-11 05:21:00,
2013-07-11 01:26:00,68.4,67.8,29.92,West,264,0.0,0.0,98,0.00,,---,0.00,VWS V14.00,2013-07-11 05:26:00,
2013-07-11 01:30:00,68.3,67.7,29.92,West,264,0.0,0.0,98,0.00,,---,0.00,VWS V14.00,2013-07-11 05:30:00,
2013-07-11 01:31:00,68.3,67.7,29.92,West,264,0.0,0.0,98,0.00,,---,0.00,VWS V14.00,2013-07-11 05:31:00,
2013-07-11 01:36:00,68.3,67.7,29.92,West,264,0.0,0.0,98,0.00,,---,0.00,VWS V14.00,2013-07-11 05:36:00,
2013-07-11 01:41:00,68.3,67.7,29.92,West,265,0.0,0.0,98,0.00,,---,0.00,VWS V14.00,2013-07-11 05:41:00,
2013-07-11 01:46:00,68.2,67.6,29.92,West,264,0.0,0.0,98,0.00,,---,0.00,VWS V14.00,2013-07-11 05:46:00,
2013-07-11 01:51:00,68.3,67.7,29.92,West,264,0.0,0.0,98,0.00,,---,0.00,VWS V14.00,2013-07-11 05:51:00,
2013-07-11 01:56:00,68.3,68.0,29.92,West,264,0.0,0.0,99,0.00,,---,0.00,VWS V14.00,2013-07-11 05:56:00,
2013-07-11 02:00:00,68.3,68.0,29.92,West,265,0.0,0.0,99,0.00,,---,0.00,VWS V14.00,2013-07-11 06:00:00,
2013-07-11 02:01:00,68.3,68.0,29.92,West,265,0.0,0.0,99,0.00,,---,0.00,VWS V14.00,2013-07-11 06:01:00,
2013-07-11 02:06:00,68.3,68.0,29.92,West,265,0.0,0.0,99,0.00,,---,0.00,VWS V14.00,2013-07-11 06:06:00,
2013-07-11 02:11:00,68.3,68.0,29.93,West,264,0.0,0.0,99,0.00,,---,0.00,VWS V14.00,2013-07-11 06:11:00,
2013-07-11 02:16:00,68.4,68.1,29.93,West,264,0.0,0.0,99,0.00,,---,0.00,VWS V14.00,2013-07-11 06:16:00,
2013-07-11 02:21:00,68.4,68.1,29.93,West,265,0.0,0.0,99,0.00,,---,0.00,VWS V14.00,2013-07-11 06:21:00,
2013-07-11 02:26:00,68.4,68.1,29.93,West,264,0.0,0.0,99,0.00,,---,0.00,VWS V14.00,2013-07-11 06:26:00,
2013-07-11 02:30:00,68.4,68.1,29.93,West,264,0.0,0.0,99,0.00,,---,0.00,VWS V14.00,2013-07-11 06:30:00,
2013-07-11 02:31:00,68.4,68.1,29.93,West,265,0.0,0.0,99,0.00,,---,0.00,VWS V14.00,2013-07-11 06:31:00,
2013-07-11 02:36:00,68.4,68.1,29.93,West,264,0.0,0.0,99,0.00,,---,0.00,VWS V14.00,2013-07-11 06:36:00,
2013-07-11 02:41:00,68.4,68.1,29.93,West,265,0.0,0.0,99,0.00,,---,0.00,VWS V14.00,2013-07-11 06:41:00,
2013-07-11 02:46:00,68.4,68.1,29.93,West,265,0.0,0.0,99,0.00,,---,0.00,VWS V14.00,2013-07-11 06:46:00,
2013-07-11 02:51:00,68.4,68.1,29.93,West,264,0.0,0.0,99,0.00,,---,0.00,VWS V14.00,2013-07-11 06:51:00,
2013-07-11 02:56:00,68.4,68.1,29.93,West,265,0.0,0.0,99,0.00,,---,0.00,VWS V14.00,2013-07-11 06:56:00,
2013-07-11 03:00:00,68.3,68.0,29.93,West,265,0.0,0.0,99,0.00,,---,0.00,VWS V14.00,2013-07-11 07:00:00,
2013-07-11 03:01:00,68.4,68.1,29.94,West,265,0.0,0.0,99,0.00,,---,0.00,VWS V14.00,2013-07-11 07:01:00,
2013-07-11 03:06:00,68.4,68.1,29.93,West,265,0.0,0.0,99,0.00,,---,0.00,VWS V14.00,2013-07-11 07:06:00,
2013-07-11 03:11:00,68.3,68.0,29.93,West,264,0.0,0.0,99,0.00,,---,0.00,VWS V14.00,2013-07-11 07:11:00,
2013-07-11 03:16:00,68.3,68.0,29.92,West,265,0.0,0.0,99,0.00,,---,0.00,VWS V14.00,2013-07-11 07:16:00,
2013-07-11 03:21:00,68.3,68.0,29.92,West,265,0.0,0.0,99,0.00,,---,0.00,VWS V14.00,2013-07-11 07:21:00,
2013-07-11 03:26:00,68.3,68.0,29.92,West,265,0.0,0.0,99,0.00,,---,0.00,VWS V14.00,2013-07-11 07:26:00,
2013-07-11 03:30:00,68.3,68.0,29.92,North,0,0.0,0.0,99,0.00,,---,0.00,VWS V14.00,2013-07-11 07:30:00,
2013-07-11 03:31:00,68.2,67.9,29.92,West,264,0.0,0.0,99,0.00,,---,0.00,VWS V14.00,2013-07-11 07:31:00,
2013-07-11 04:00:00,68.2,67.9,29.91,North,0,0.0,0.0,99,0.00,,---,0.00,VWS V14.00,2013-07-11 08:00:00,
2013-07-11 04:30:00,68.2,67.9,29.90,North,0,0.0,0.0,99,0.00,,---,0.00,VWS V14.00,2013-07-11 08:30:00,
2013-07-11 05:00:00,68.1,67.8,29.90,North,0,0.0,0.0,99,0.00,,---,0.00,VWS V14.00,2013-07-11 09:00:00,
2013-07-11 05:30:00,68.1,67.8,29.92,North,0,0.0,0.0,99,0.00,,---,0.00,VWS V14.00,2013-07-11 09:30:00,
2013-07-11 06:00:00,68.1,67.8,29.92,North,0,0.0,0.0,99,0.00,,---,0.00,VWS V14.00,2013-07-11 10:00:00,
2013-07-11 06:30:00,68.0,67.7,29.93,North,0,0.0,0.0,99,0.00,,---,0.00,VWS V14.00,2013-07-11 10:30:00,
2013-07-11 07:00:00,68.1,67.8,29.93,North,0,0.0,0.0,99,0.00,,---,0.00,VWS V14.00,2013-07-11 11:00:00,
2013-07-11 07:30:00,68.3,68.0,29.94,North,0,0.0,0.0,99,0.00,,---,0.00,VWS V14.00,2013-07-11 11:30:00,
2013-07-11 08:00:00,68.5,68.2,29.94,North,0,0.0,0.0,99,0.00,,---,0.00,VWS V14.00,2013-07-11 12:00:00,
2013-07-11 08:30:00,68.5,68.2,29.95,North,0,0.0,0.0,99,0.00,,---,0.00,VWS V14.00,2013-07-11 12:30:00,
2013-07-11 09:00:00,68.8,68.8,29.95,North,0,0.0,0.0,100,0.00,,---,0.00,VWS V14.00,2013-07-11 13:00:00,
2013-07-11 10:00:00,68.8,68.8,29.95,North,0,0.0,0.0,100,0.00,,---,0.00,VWS V14.00,2013-07-11 14:00:00,
2013-07-11 10:05:00,69.6,69.6,29.95,West,273,0.0,0.0,100,0.00,,---,0.00,VWS V14.00,2013-07-11 14:05:00,
2013-07-11 10:10:00,69.6,69.6,29.95,West,272,0.0,0.0,100,0.00,,---,0.00,VWS V14.00,2013-07-11 14:10:00,
2013-07-11 10:15:00,69.8,69.8,29.95,West,272,0.0,1.0,100,0.00,,---,0.00,VWS V14.00,2013-07-11 14:15:00,
2013-07-11 10:20:00,69.9,69.9,29.95,West,273,0.0,1.0,100,0.00,,---,0.00,VWS V14.00,2013-07-11 14:20:00,
2013-07-11 10:25:00,70.1,70.1,29.95,West,273,0.0,1.0,100,0.00,,---,0.00,VWS V14.00,2013-07-11 14:25:00,
2013-07-11 10:30:00,70.2,70.2,29.95,West,273,0.0,1.0,100,0.00,,---,0.00,VWS V14.00,2013-07-11 14:30:00,
2013-07-11 10:36:00,70.4,70.4,29.95,West,273,0.0,1.0,100,0.00,,---,0.00,VWS V14.00,2013-07-11 14:36:00,
2013-07-11 10:41:00,70.7,70.7,29.95,West,272,0.0,0.0,100,0.00,,---,0.00,VWS V14.00,2013-07-11 14:41:00,
2013-07-11 10:46:00,70.9,70.6,29.95,West,273,0.0,0.0,99,0.00,,---,0.00,VWS V14.00,2013-07-11 14:46:00,
2013-07-11 10:51:00,71.1,70.8,29.95,West,273,0.0,0.0,99,0.00,,---,0.00,VWS V14.00,2013-07-11 14:51:00,
2013-07-11 10:56:00,71.4,71.1,29.94,NE,52,0.0,0.0,99,0.00,,---,0.00,VWS V14.00,2013-07-11 14:56:00,
2013-07-11 11:01:00,71.6,71.3,29.95,NE,52,0.0,0.0,99,0.00,,---,0.00,VWS V14.00,2013-07-11 15:01:00,
2013-07-11 11:06:00,71.8,71.2,29.95,NE,52,0.0,0.0,98,0.00,,---,0.00,VWS V14.00,2013-07-11 15:06:00,
2013-07-11 11:11:00,72.2,71.6,29.94,NE,52,0.0,0.0,98,0.00,,---,0.00,VWS V14.00,2013-07-11 15:11:00,
2013-07-11 11:16:00,72.7,72.1,29.94,NE,52,0.0,0.0,98,0.00,,---,0.00,VWS V14.00,2013-07-11 15:16:00,
2013-07-11 11:21:00,72.8,71.6,29.94,NE,52,0.0,1.0,96,0.00,,---,0.00,VWS V14.00,2013-07-11 15:21:00,
2013-07-11 11:26:00,73.3,72.1,29.94,ENE,69,0.0,1.0,96,0.00,,---,0.00,VWS V14.00,2013-07-11 15:26:00,
2013-07-11 11:31:00,73.5,71.7,29.94,ESE,109,0.0,1.0,94,0.00,,---,0.00,VWS V14.00,2013-07-11 15:31:00,
2013-07-11 11:46:00,74.5,71.4,29.94,East,101,0.0,0.0,90,0.00,,---,0.00,VWS V14.00,2013-07-11 15:46:00,
2013-07-11 11:51:00,74.7,71.6,29.94,SW,220,0.0,0.0,90,0.00,,---,0.00,VWS V14.00,2013-07-11 15:51:00,
2013-07-11 11:57:00,74.9,71.8,29.94,ESE,110,0.0,1.0,90,0.00,,---,0.00,VWS V14.00,2013-07-11 15:57:00,
2013-07-11 12:02:00,75.1,71.3,29.93,ESE,110,0.0,1.0,88,0.00,,---,0.00,VWS V14.00,2013-07-11 16:02:00,
2013-07-11 12:07:00,75.5,71.7,29.93,SE,140,0.0,1.0,88,0.00,,---,0.00,VWS V14.00,2013-07-11 16:07:00,
2013-07-11 12:12:00,76.0,72.9,29.93,SE,140,0.0,1.0,90,0.00,,---,0.00,VWS V14.00,2013-07-11 16:12:00,
2013-07-11 12:17:00,76.3,73.2,29.92,SE,140,0.0,1.0,90,0.00,,---,0.00,VWS V14.00,2013-07-11 16:17:00,
2013-07-11 12:22:00,76.5,72.3,29.92,SE,146,0.0,1.0,87,0.00,,---,0.00,VWS V14.00,2013-07-11 16:22:00,
2013-07-11 12:30:00,76.9,70.3,29.91,SSE,158,0.0,5.0,80,0.01,,---,0.01,VWS V14.00,2013-07-11 16:30:00,
2013-07-11 13:00:00,78.6,72.7,29.91,SSE,158,0.0,1.0,82,0.01,,---,0.01,VWS V14.00,2013-07-11 17:00:00,
2013-07-11 13:30:00,77.6,72.7,29.91,SSE,158,0.0,1.0,85,0.01,,---,0.01,VWS V14.00,2013-07-11 17:30:00,
2013-07-11 14:00:00,77.2,72.3,29.90,SSE,158,0.0,1.0,85,0.00,,---,0.01,VWS V14.00,2013-07-11 18:00:00,
2013-07-11 14:30:00,77.6,72.4,29.89,SSE,158,0.0,1.0,84,0.00,,---,0.01,VWS V14.00,2013-07-11 18:30:00,
2013-07-11 15:00:00,77.9,71.2,29.89,South,180,0.0,2.0,80,0.00,,---,0.01,VWS V14.00,2013-07-11 19:00:00,
2013-07-11 15:30:00,77.8,72.6,29.89,South,180,0.0,4.0,84,0.00,,---,0.01,VWS V14.00,2013-07-11 19:30:00,
2013-07-11 16:00:00,78.5,72.2,29.87,SSE,158,0.0,4.0,81,0.00,,---,0.01,VWS V14.00,2013-07-11 20:00:00,
2013-07-11 16:30:00,81.1,72.8,29.85,NE,45,0.0,4.0,76,0.00,,---,0.01,VWS V14.00,2013-07-11 20:30:00,
2013-07-11 17:00:00,82.3,72.8,29.84,South,180,0.0,9.0,73,0.00,,---,0.01,VWS V14.00,2013-07-11 21:00:00,
2013-07-11 17:30:00,82.7,74.4,29.84,SSE,158,0.0,6.0,76,0.00,,---,0.01,VWS V14.00,2013-07-11 21:30:00,
2013-07-11 18:00:00,82.1,72.6,29.84,South,180,0.0,3.0,73,0.00,,---,0.01,VWS V14.00,2013-07-11 22:00:00,
2013-07-11 18:30:00,80.4,72.2,29.84,South,180,0.0,6.0,76,0.00,,---,0.01,VWS V14.00,2013-07-11 22:30:00,
2013-07-11 19:00:00,78.3,71.6,29.85,SSW,202,0.0,3.0,80,0.00,,---,0.01,VWS V14.00,2013-07-11 23:00:00,
2013-07-11 19:30:00,75.7,69.8,29.86,South,180,0.0,4.0,82,0.00,,---,0.01,VWS V14.00,2013-07-11 23:30:00,
2013-07-11 20:00:00,74.5,69.3,29.86,West,270,0.0,2.0,84,0.00,,---,0.01,VWS V14.00,2013-07-12 00:00:00,
2013-07-11 20:30:00,73.6,69.5,29.86,SW,225,0.0,1.0,87,0.00,,---,0.01,VWS V14.00,2013-07-12 00:30:00,
2013-07-11 21:00:00,72.4,69.3,29.87,NW,315,0.0,4.0,90,0.00,,---,0.01,VWS V14.00,2013-07-12 01:00:00,
2013-07-11 21:30:00,71.5,68.7,29.88,NW,315,0.0,2.0,91,0.00,,---,0.01,VWS V14.00,2013-07-12 01:30:00,
2013-07-11 22:00:00,71.0,68.6,29.88,NW,315,0.0,3.0,92,0.00,,---,0.01,VWS V14.00,2013-07-12 02:00:00,
2013-07-11 22:30:00,71.0,68.6,29.88,South,180,0.0,2.0,92,0.00,,---,0.01,VWS V14.00,2013-07-12 02:30:00,
2013-07-11 23:00:00,70.9,68.2,29.89,SW,225,0.0,5.0,91,0.00,,---,0.01,VWS V14.00,2013-07-12 03:00:00,
2013-07-11 23:30:00,70.6,68.2,29.87,SSE,158,0.0,2.0,92,0.00,,---,0.01,VWS V14.00,2013-07-12 03:30:00,